createdAt,value
2019-05-03T00:00:05.438Z,10.80
2019-05-03T00:01:09.670Z,10.80
2019-05-03T00:02:05.680Z,10.80
2019-05-03T00:03:04.808Z,10.90
2019-05-03T00:04:04.872Z,10.90
2019-05-03T00:05:05.745Z,10.90
2019-05-03T00:06:07.423Z,10.90
2019-05-03T00:07:05.545Z,10.90
2019-05-03T00:08:09.750Z,10.90
2019-05-03T00:09:04.679Z,10.90
2019-05-03T00:10:04.733Z,10.90
2019-05-03T00:11:04.850Z,10.90
2019-05-03T00:12:07.518Z,10.90
2019-05-03T00:13:05.548Z,10.90
2019-05-03T00:14:05.716Z,10.90
2019-05-03T00:15:04.793Z,11.00
2019-05-03T00:16:04.871Z,11.00
2019-05-03T00:17:07.537Z,10.90
2019-05-03T00:18:09.505Z,10.90
2019-05-03T00:19:05.346Z,10.90
2019-05-03T00:20:11.232Z,11.00
2019-05-03T00:21:11.557Z,10.90
2019-05-03T00:22:07.235Z,10.90
2019-05-03T00:23:05.154Z,10.90
2019-05-03T00:24:05.378Z,10.90
2019-05-03T00:25:13.051Z,10.90
2019-05-03T00:26:07.496Z,10.90
2019-05-03T00:27:09.715Z,10.90
2019-05-03T00:28:04.791Z,10.90
2019-05-03T00:29:07.506Z,10.90
2019-05-03T00:30:05.593Z,10.90
2019-05-03T00:31:04.637Z,10.90
2019-05-03T00:32:04.836Z,10.90
2019-05-03T00:33:04.980Z,10.90
2019-05-03T00:34:05.039Z,10.90
2019-05-03T00:35:05.154Z,10.90
2019-05-03T00:36:07.781Z,10.90
2019-05-03T00:37:09.550Z,10.90
2019-05-03T00:38:09.554Z,10.90
2019-05-03T00:39:05.604Z,10.90
2019-05-03T00:40:09.746Z,10.90
2019-05-03T00:41:04.850Z,10.90
2019-05-03T00:42:04.957Z,10.90
2019-05-03T00:43:07.558Z,10.90
2019-05-03T00:44:05.648Z,10.90
2019-05-03T00:45:04.757Z,10.90
2019-05-03T00:46:04.845Z,10.90
2019-05-03T00:47:05.016Z,10.90
2019-05-03T00:48:05.117Z,10.90
2019-05-03T00:49:05.207Z,10.90
2019-05-03T00:50:12.007Z,10.90
2019-05-03T00:51:05.036Z,10.90
2019-05-03T00:52:05.138Z,10.90
2019-05-03T00:53:05.251Z,10.90
2019-05-03T00:54:05.326Z,10.90
2019-05-03T00:55:15.653Z,10.90
2019-05-03T00:56:04.916Z,10.90
2019-05-03T00:57:05.105Z,10.90
2019-05-03T00:58:05.192Z,10.90
2019-05-03T00:59:07.929Z,10.90
2019-05-03T01:00:05.419Z,10.90
2019-05-03T01:01:05.612Z,11.00
2019-05-03T01:02:11.341Z,10.90
2019-05-03T01:03:04.914Z,11.00
2019-05-03T01:04:07.548Z,10.90
2019-05-03T01:05:11.482Z,11.00
2019-05-03T01:06:11.315Z,10.90
2019-05-03T01:07:05.581Z,10.90
2019-05-03T01:08:04.626Z,11.00
2019-05-03T01:09:04.678Z,10.90
2019-05-03T01:10:04.776Z,11.00
2019-05-03T01:11:04.883Z,10.90
2019-05-03T01:12:07.597Z,10.90
2019-05-03T01:13:09.538Z,11.00
2019-05-03T01:14:09.465Z,11.00
2019-05-03T01:15:04.595Z,11.00
2019-05-03T01:16:07.151Z,11.00
2019-05-03T01:17:07.802Z,10.90
2019-05-03T01:18:05.489Z,11.00
2019-05-03T01:19:09.580Z,11.00
2019-05-03T01:20:07.333Z,11.00
2019-05-03T01:21:05.236Z,11.00
2019-05-03T01:22:07.852Z,11.00
2019-05-03T01:23:09.590Z,11.00
2019-05-03T01:24:05.683Z,11.00
2019-05-03T01:25:04.782Z,11.00
2019-05-03T01:26:04.861Z,11.00
2019-05-03T01:27:07.444Z,11.00
2019-05-03T01:28:09.504Z,11.00
2019-05-03T01:29:09.531Z,11.00
2019-05-03T01:30:05.489Z,11.00
2019-05-03T01:31:11.859Z,11.00
2019-05-03T01:32:05.059Z,10.90
2019-05-03T01:33:05.126Z,11.00
2019-05-03T01:34:05.233Z,11.00
2019-05-03T01:35:07.873Z,11.00
2019-05-03T01:36:07.871Z,10.90
2019-05-03T01:37:04.624Z,11.00
2019-05-03T01:38:07.219Z,11.00
2019-05-03T01:39:07.682Z,11.00
2019-05-03T01:40:07.808Z,10.90
2019-05-03T01:41:07.802Z,11.00
2019-05-03T01:42:05.305Z,10.90
2019-05-03T01:43:05.369Z,11.00
2019-05-03T01:44:09.609Z,10.90
2019-05-03T01:45:05.585Z,10.90
2019-05-03T01:46:07.202Z,10.90
2019-05-03T01:47:05.249Z,10.90
2019-05-03T01:48:07.946Z,10.90
2019-05-03T01:49:05.404Z,10.90
2019-05-03T01:50:05.511Z,10.90
2019-05-03T01:51:11.692Z,10.90
2019-05-03T01:52:04.728Z,10.90
2019-05-03T01:53:14.113Z,10.90
2019-05-03T01:54:05.041Z,10.90
2019-05-03T01:55:05.170Z,10.90
2019-05-03T01:56:07.950Z,10.90
2019-05-03T01:57:11.533Z,10.90
2019-05-03T01:58:05.569Z,10.90
2019-05-03T01:59:04.760Z,10.90
2019-05-03T02:00:04.913Z,11.00
2019-05-03T02:01:07.486Z,10.90
2019-05-03T02:02:07.326Z,10.90
2019-05-03T02:03:05.484Z,10.90
2019-05-03T02:04:09.591Z,10.90
2019-05-03T02:05:05.620Z,10.90
2019-05-03T02:06:04.758Z,10.90
2019-05-03T02:07:07.429Z,10.90
2019-05-03T02:08:07.889Z,10.90
2019-05-03T02:09:07.853Z,10.90
2019-05-03T02:10:05.355Z,10.90
2019-05-03T02:11:05.396Z,10.90
2019-05-03T02:12:05.515Z,10.90
2019-05-03T02:13:05.549Z,10.90
2019-05-03T02:14:04.696Z,10.90
2019-05-03T02:15:07.445Z,10.90
2019-05-03T02:16:11.483Z,10.80
2019-05-03T02:17:05.758Z,10.80
2019-05-03T02:18:04.861Z,10.80
2019-05-03T02:19:04.909Z,10.80
2019-05-03T02:20:07.488Z,10.80
2019-05-03T02:21:05.422Z,10.80
2019-05-03T02:22:09.633Z,10.80
2019-05-03T02:23:04.775Z,10.80
2019-05-03T02:24:11.732Z,10.80
2019-05-03T02:25:04.934Z,10.80
2019-05-03T02:26:05.009Z,10.80
2019-05-03T02:27:05.119Z,10.80
2019-05-03T02:28:05.264Z,10.80
2019-05-03T02:29:05.346Z,10.70
2019-05-03T02:30:05.375Z,10.80
2019-05-03T02:31:09.614Z,10.80
2019-05-03T02:32:05.583Z,10.70
2019-05-03T02:33:04.631Z,10.70
2019-05-03T02:34:04.736Z,10.70
2019-05-03T02:35:04.898Z,10.70
2019-05-03T02:36:05.078Z,10.70
2019-05-03T02:37:05.284Z,10.70
2019-05-03T02:38:05.451Z,10.70
2019-05-03T02:39:05.715Z,10.70
2019-05-03T02:40:06.476Z,10.70
2019-05-03T02:41:05.580Z,10.60
2019-05-03T02:42:10.258Z,10.70
2019-05-03T02:43:05.515Z,10.60
2019-05-03T02:44:06.255Z,10.60
2019-05-03T02:45:06.023Z,10.70
2019-05-03T02:46:05.947Z,10.60
2019-05-03T02:47:05.642Z,10.70
2019-05-03T02:48:05.965Z,10.60
2019-05-03T02:49:06.365Z,10.60
2019-05-03T02:50:05.909Z,10.70
2019-05-03T02:51:06.498Z,10.70
2019-05-03T02:52:06.579Z,10.70
2019-05-03T02:53:05.803Z,10.60
2019-05-03T02:54:05.618Z,10.60
2019-05-03T02:55:06.033Z,10.70
2019-05-03T02:56:14.830Z,10.60
2019-05-03T02:57:06.277Z,10.70
2019-05-03T02:58:05.788Z,10.60
2019-05-03T02:59:06.126Z,10.70
2019-05-03T03:00:05.521Z,10.60
2019-05-03T03:01:06.455Z,10.60
2019-05-03T03:02:06.269Z,10.60
2019-05-03T03:03:05.652Z,10.60
2019-05-03T03:04:05.333Z,10.60
2019-05-03T03:05:05.820Z,10.60
2019-05-03T03:06:06.679Z,10.50
2019-05-03T03:07:05.628Z,10.60
2019-05-03T03:08:05.912Z,10.50
2019-05-03T03:09:05.473Z,10.60
2019-05-03T03:10:05.389Z,10.60
2019-05-03T03:11:06.594Z,10.50
2019-05-03T03:12:06.024Z,10.50
2019-05-03T03:13:05.957Z,10.50
2019-05-03T03:14:05.865Z,10.50
2019-05-03T03:15:06.126Z,10.50
2019-05-03T03:16:06.736Z,10.50
2019-05-03T03:17:06.577Z,10.50
2019-05-03T03:18:06.236Z,10.50
2019-05-03T03:19:09.819Z,10.40
2019-05-03T03:20:05.556Z,10.50
2019-05-03T03:21:05.767Z,10.40
2019-05-03T03:22:05.817Z,10.40
2019-05-03T03:23:07.835Z,10.40
2019-05-03T03:24:10.395Z,10.40
2019-05-03T03:25:05.565Z,10.40
2019-05-03T03:26:06.150Z,10.40
2019-05-03T03:27:05.596Z,10.40
2019-05-03T03:28:05.286Z,10.40
2019-05-03T03:29:05.579Z,10.40
2019-05-03T03:30:07.520Z,10.40
2019-05-03T03:31:08.236Z,10.40
2019-05-03T03:32:08.892Z,10.40
2019-05-03T03:33:08.586Z,10.40
2019-05-03T03:34:08.037Z,10.40
2019-05-03T03:35:12.222Z,10.30
2019-05-03T03:36:31.080Z,10.30
2019-05-03T03:37:09.651Z,10.30
2019-05-03T03:38:05.817Z,10.30
2019-05-03T03:39:05.987Z,10.30
2019-05-03T03:40:06.116Z,10.20
2019-05-03T03:41:05.924Z,10.30
2019-05-03T03:42:05.454Z,10.20
2019-05-03T03:43:05.603Z,10.20
2019-05-03T03:44:05.785Z,10.20
2019-05-03T03:45:05.997Z,10.20
2019-05-03T03:46:05.505Z,10.10
2019-05-03T03:47:05.419Z,10.10
2019-05-03T03:48:05.243Z,10.10
2019-05-03T03:49:07.010Z,10.10
2019-05-03T03:50:05.946Z,10.10
2019-05-03T03:51:05.267Z,10.10
2019-05-03T03:52:06.032Z,10.00
2019-05-03T03:53:06.654Z,10.00
2019-05-03T03:54:06.015Z,10.00
2019-05-03T03:55:06.379Z,10.00
2019-05-03T03:56:05.536Z,10.00
2019-05-03T03:57:07.811Z,9.90
2019-05-03T03:58:06.422Z,9.90
2019-05-03T03:59:05.815Z,9.90
2019-05-03T04:00:05.470Z,9.80
2019-05-03T04:01:06.054Z,9.80
2019-05-03T04:02:05.883Z,9.80
2019-05-03T04:03:05.931Z,9.80
2019-05-03T04:04:05.601Z,9.80
2019-05-03T04:05:05.531Z,9.80
2019-05-03T04:06:05.799Z,9.80
2019-05-03T04:07:06.485Z,9.80
2019-05-03T04:08:05.616Z,9.70
2019-05-03T04:09:05.215Z,9.70
2019-05-03T04:10:05.761Z,9.70
2019-05-03T04:11:06.232Z,9.70
2019-05-03T04:12:06.078Z,9.70
2019-05-03T04:13:05.588Z,9.70
2019-05-03T04:14:05.365Z,9.60
2019-05-03T04:15:05.754Z,9.70
2019-05-03T04:16:05.603Z,9.70
2019-05-03T04:17:05.837Z,9.70
2019-05-03T04:18:05.585Z,9.60
2019-05-03T04:19:05.715Z,9.70
2019-05-03T04:20:05.106Z,9.60
2019-05-03T04:21:05.682Z,9.60
2019-05-03T04:22:05.837Z,9.60
2019-05-03T04:23:05.340Z,9.60
2019-05-03T04:24:05.916Z,9.60
2019-05-03T04:25:15.290Z,9.60
2019-05-03T04:26:06.989Z,9.60
2019-05-03T04:27:15.345Z,9.60
2019-05-03T04:28:05.692Z,9.60
2019-05-03T04:29:05.456Z,9.60
2019-05-03T04:30:05.841Z,9.60
2019-05-03T04:31:06.168Z,9.60
2019-05-03T04:32:06.076Z,9.60
2019-05-03T04:33:06.091Z,9.60
2019-05-03T04:34:05.576Z,9.60
2019-05-03T04:35:05.436Z,9.60
2019-05-03T04:36:05.360Z,9.60
2019-05-03T04:37:05.293Z,9.60
2019-05-03T04:38:05.778Z,9.60
2019-05-03T04:39:05.420Z,9.60
2019-05-03T04:40:06.207Z,9.60
2019-05-03T04:41:06.117Z,9.60
2019-05-03T04:42:06.597Z,9.70
2019-05-03T04:43:06.663Z,9.60
2019-05-03T04:44:06.239Z,9.70
2019-05-03T04:45:05.946Z,9.70
2019-05-03T04:46:06.509Z,9.70
2019-05-03T04:47:06.731Z,9.70
2019-05-03T04:48:06.000Z,9.70
2019-05-03T04:49:05.775Z,9.60
2019-05-03T04:50:05.550Z,9.60
2019-05-03T04:51:05.839Z,9.70
2019-05-03T04:52:05.748Z,9.60
2019-05-03T04:53:10.214Z,9.60
2019-05-03T04:54:05.429Z,9.60
2019-05-03T04:55:06.532Z,9.60
2019-05-03T04:56:05.691Z,9.60
2019-05-03T04:57:06.540Z,9.60
2019-05-03T04:58:04.969Z,9.50
2019-05-03T04:59:07.682Z,9.50
2019-05-03T05:00:05.609Z,9.50
2019-05-03T05:01:06.170Z,9.50
2019-05-03T05:02:06.051Z,9.50
2019-05-03T05:03:05.983Z,9.50
2019-05-03T05:04:05.290Z,9.50
2019-05-03T05:05:06.067Z,9.50
2019-05-03T05:06:06.223Z,9.50
2019-05-03T05:07:06.101Z,9.50
2019-05-03T05:08:05.852Z,9.60
2019-05-03T05:09:05.360Z,9.60
2019-05-03T05:10:05.518Z,9.60
2019-05-03T05:11:05.407Z,9.60
2019-05-03T05:12:05.787Z,9.60
2019-05-03T05:13:05.457Z,9.60
2019-05-03T05:14:06.343Z,9.60
2019-05-03T05:15:05.388Z,9.60
2019-05-03T05:16:06.018Z,9.60
2019-05-03T05:17:06.047Z,9.60
2019-05-03T05:18:05.870Z,9.60
2019-05-03T05:19:05.698Z,9.60
2019-05-03T05:20:05.344Z,9.60
2019-05-03T05:21:05.504Z,9.60
2019-05-03T05:22:06.004Z,9.60
2019-05-03T05:23:05.129Z,9.60
2019-05-03T05:24:05.471Z,9.70
2019-05-03T05:25:04.790Z,9.60
2019-05-03T05:26:05.516Z,9.60
2019-05-03T05:27:05.282Z,9.70
2019-05-03T05:28:05.640Z,9.60
2019-05-03T05:29:07.944Z,9.60
2019-05-03T05:30:05.415Z,9.60
2019-05-03T05:31:08.039Z,9.70
2019-05-03T05:32:10.505Z,9.60
2019-05-03T05:33:05.443Z,9.60
2019-05-03T05:34:10.283Z,9.60
2019-05-03T05:35:05.307Z,9.70
2019-05-03T05:36:04.920Z,9.60
2019-05-03T05:37:05.432Z,9.70
2019-05-03T05:38:05.596Z,9.60
2019-05-03T05:39:05.197Z,9.60
2019-05-03T05:40:05.450Z,9.60
2019-05-03T05:41:05.554Z,9.60
2019-05-03T05:42:09.682Z,9.60
2019-05-03T05:43:05.534Z,9.50
2019-05-03T05:44:05.661Z,9.50
2019-05-03T05:45:04.987Z,9.50
2019-05-03T05:46:05.313Z,9.60
2019-05-03T05:47:09.688Z,9.60
2019-05-03T05:48:05.129Z,9.50
2019-05-03T05:49:07.975Z,9.60
2019-05-03T05:50:05.528Z,9.50
2019-05-03T05:51:08.074Z,9.60
2019-05-03T05:52:05.510Z,9.50
2019-05-03T05:53:05.715Z,9.60
2019-05-03T05:54:05.258Z,9.50
2019-05-03T05:55:07.971Z,9.50
2019-05-03T05:56:05.420Z,9.50
2019-05-03T05:57:08.175Z,9.50
2019-05-03T05:58:05.874Z,9.50
2019-05-03T05:59:08.150Z,9.50
2019-05-03T06:00:05.571Z,9.40
2019-05-03T06:01:05.451Z,9.40
2019-05-03T06:02:04.893Z,9.40
2019-05-03T06:03:05.219Z,9.40
2019-05-03T06:04:05.484Z,9.30
2019-05-03T06:05:08.041Z,9.30
2019-05-03T06:06:05.558Z,9.30
2019-05-03T06:07:04.791Z,9.30
2019-05-03T06:08:04.975Z,9.30
2019-05-03T06:09:05.176Z,9.30
2019-05-03T06:10:05.375Z,9.30
2019-05-03T06:11:05.443Z,9.30
2019-05-03T06:12:05.509Z,9.30
2019-05-03T06:13:05.633Z,9.30
2019-05-03T06:14:05.048Z,9.30
2019-05-03T06:15:05.153Z,9.30
2019-05-03T06:16:05.242Z,9.30
2019-05-03T06:17:06.291Z,9.30
2019-05-03T06:18:05.792Z,9.30
2019-05-03T06:19:04.864Z,9.30
2019-05-03T06:20:05.368Z,9.30
2019-05-03T06:21:05.542Z,9.30
2019-05-03T06:22:08.079Z,9.30
2019-05-03T06:23:05.507Z,9.30
2019-05-03T06:24:08.122Z,9.30
2019-05-03T06:25:06.593Z,9.30
2019-05-03T06:26:05.021Z,9.30
2019-05-03T06:27:05.269Z,9.30
2019-05-03T06:28:17.194Z,9.20
2019-05-03T06:29:04.785Z,9.30
2019-05-03T06:30:05.020Z,9.20
2019-05-03T06:31:05.092Z,9.20
2019-05-03T06:32:05.440Z,9.20
2019-05-03T06:33:05.518Z,9.10
2019-05-03T06:34:08.161Z,9.00
2019-05-03T06:35:04.979Z,9.00
2019-05-03T06:36:05.101Z,9.00
2019-05-03T06:37:07.817Z,9.00
2019-05-03T06:38:04.947Z,8.90
2019-05-03T06:39:06.721Z,8.90
2019-05-03T06:40:07.315Z,8.80
2019-05-03T06:41:05.321Z,8.80
2019-05-03T06:42:05.320Z,8.80
2019-05-03T06:43:09.577Z,8.70
2019-05-03T06:44:04.783Z,8.70
2019-05-03T06:45:10.169Z,8.70
2019-05-03T06:46:05.299Z,8.70
2019-05-03T06:47:06.555Z,8.60
2019-05-03T06:48:07.061Z,8.60
2019-05-03T06:49:06.377Z,8.60
2019-05-03T06:50:05.457Z,8.60
2019-05-03T06:51:10.390Z,8.60
2019-05-03T06:52:05.885Z,8.60
2019-05-03T06:53:10.391Z,8.50
2019-05-03T06:54:05.014Z,8.50
2019-05-03T06:55:09.159Z,8.50
2019-05-03T06:56:04.727Z,8.50
2019-05-03T06:57:08.022Z,8.50
2019-05-03T06:58:05.133Z,8.50
2019-05-03T06:59:07.956Z,8.50
2019-05-03T07:00:05.472Z,8.50
2019-05-03T07:01:05.649Z,8.50
2019-05-03T07:02:05.581Z,8.50
2019-05-03T07:03:04.956Z,8.50
2019-05-03T07:04:05.225Z,8.50
2019-05-03T07:05:05.376Z,8.50
2019-05-03T07:06:08.003Z,8.50
2019-05-03T07:07:05.579Z,8.40
2019-05-03T07:08:05.213Z,8.40
2019-05-03T07:09:10.342Z,8.40
2019-05-03T07:10:05.338Z,8.40
2019-05-03T07:11:05.536Z,8.40
2019-05-03T07:12:04.753Z,8.40
2019-05-03T07:13:05.037Z,8.40
2019-05-03T07:14:08.056Z,8.40
2019-05-03T07:15:05.433Z,8.40
2019-05-03T07:16:08.035Z,8.40
2019-05-03T07:17:05.686Z,8.40
2019-05-03T07:18:05.709Z,8.40
2019-05-03T07:19:05.035Z,8.40
2019-05-03T07:20:07.658Z,8.40
2019-05-03T07:21:05.565Z,8.40
2019-05-03T07:22:05.676Z,8.40
2019-05-03T07:23:04.753Z,8.30
2019-05-03T07:24:05.388Z,8.40
2019-05-03T07:25:05.538Z,8.30
2019-05-03T07:26:05.555Z,8.30
2019-05-03T07:27:05.400Z,8.30
2019-05-03T07:28:04.607Z,8.30
2019-05-03T07:29:05.027Z,8.20
2019-05-03T07:30:05.137Z,8.20
2019-05-03T07:31:05.219Z,8.20
2019-05-03T07:32:05.319Z,8.20
2019-05-03T07:33:05.372Z,8.20
2019-05-03T07:34:05.393Z,8.20
2019-05-03T07:35:05.914Z,8.10
2019-05-03T07:36:05.406Z,8.10
2019-05-03T07:37:05.873Z,8.10
2019-05-03T07:38:05.422Z,8.10
2019-05-03T07:39:05.481Z,8.10
2019-05-03T07:40:08.069Z,8.00
2019-05-03T07:41:05.520Z,8.00
2019-05-03T07:42:05.621Z,8.00
2019-05-03T07:43:04.758Z,8.00
2019-05-03T07:44:05.313Z,8.00
2019-05-03T07:45:05.613Z,8.00
2019-05-03T07:46:05.565Z,8.00
2019-05-03T07:47:05.043Z,8.00
2019-05-03T07:48:07.731Z,8.00
2019-05-03T07:49:05.111Z,8.00
2019-05-03T07:50:05.311Z,8.00
2019-05-03T07:51:05.680Z,8.00
2019-05-03T07:52:05.775Z,8.00
2019-05-03T07:53:14.855Z,8.00
2019-05-03T07:54:04.962Z,8.00
2019-05-03T07:55:07.596Z,8.00
2019-05-03T07:56:05.522Z,8.00
2019-05-03T07:57:05.561Z,8.00
2019-05-03T07:58:04.702Z,8.00
2019-05-03T07:59:06.285Z,8.00
2019-05-03T08:00:05.445Z,7.90
2019-05-03T08:01:08.835Z,8.00
2019-05-03T08:02:05.517Z,8.00
2019-05-03T08:03:05.063Z,8.00
2019-05-03T08:04:05.522Z,8.00
2019-05-03T08:05:07.176Z,8.10
2019-05-03T08:06:05.257Z,8.10
2019-05-03T08:07:05.523Z,8.10
2019-05-03T08:08:05.370Z,8.10
2019-05-03T08:09:05.485Z,8.10
2019-05-03T08:10:05.587Z,8.10
2019-05-03T08:11:05.256Z,8.10
2019-05-03T08:12:05.559Z,8.10
2019-05-03T08:13:04.793Z,8.10
2019-05-03T08:14:05.057Z,8.10
2019-05-03T08:15:05.385Z,8.10
2019-05-03T08:16:05.962Z,8.20
2019-05-03T08:17:05.246Z,8.20
2019-05-03T08:18:07.856Z,8.20
2019-05-03T08:19:05.098Z,8.20
2019-05-03T08:20:05.348Z,8.20
2019-05-03T08:21:05.802Z,8.20
2019-05-03T08:22:05.153Z,8.20
2019-05-03T08:23:05.457Z,8.20
2019-05-03T08:24:04.883Z,8.30
2019-05-03T08:25:05.391Z,8.40
2019-05-03T08:26:05.898Z,8.40
2019-05-03T08:27:05.299Z,8.40
2019-05-03T08:28:05.525Z,8.40
2019-05-03T08:29:15.046Z,8.40
2019-05-03T08:30:05.169Z,8.40
2019-05-03T08:31:07.739Z,8.50
2019-05-03T08:32:05.076Z,8.50
2019-05-03T08:33:05.567Z,8.50
2019-05-03T08:34:04.892Z,8.60
2019-05-03T08:35:05.051Z,8.60
2019-05-03T08:36:05.118Z,8.60
2019-05-03T08:37:05.392Z,8.60
2019-05-03T08:38:05.480Z,8.60
2019-05-03T08:39:05.639Z,8.60
2019-05-03T08:40:05.257Z,8.70
2019-05-03T08:41:05.458Z,8.70
2019-05-03T08:42:05.630Z,8.70
2019-05-03T08:43:07.716Z,8.70
2019-05-03T08:44:05.235Z,8.70
2019-05-03T08:45:07.822Z,8.80
2019-05-03T08:46:05.588Z,8.80
2019-05-03T08:47:05.181Z,8.80
2019-05-03T08:48:05.714Z,8.80
2019-05-03T08:49:05.260Z,8.80
2019-05-03T08:50:05.604Z,8.80
2019-05-03T08:51:04.815Z,8.80
2019-05-03T08:52:05.538Z,8.80
2019-05-03T08:53:05.317Z,8.80
2019-05-03T08:54:05.388Z,8.80
2019-05-03T08:55:06.318Z,8.80
2019-05-03T08:56:05.476Z,8.80
2019-05-03T08:57:06.198Z,8.80
2019-05-03T08:58:05.528Z,8.80
2019-05-03T08:59:05.591Z,8.80
2019-05-03T09:00:05.227Z,8.90
2019-05-03T09:01:05.699Z,8.80
2019-05-03T09:02:13.774Z,8.90
2019-05-03T09:03:05.213Z,8.90
2019-05-03T09:04:05.618Z,8.80
2019-05-03T09:05:05.189Z,8.80
2019-05-03T09:06:05.390Z,8.80
2019-05-03T09:07:08.016Z,8.80
2019-05-03T09:08:05.575Z,8.90
2019-05-03T09:09:04.829Z,8.90
2019-05-03T09:10:05.486Z,8.90
2019-05-03T09:11:05.602Z,8.90
2019-05-03T09:12:04.834Z,8.90
2019-05-03T09:13:06.270Z,9.00
2019-05-03T09:14:04.985Z,8.90
2019-05-03T09:15:05.089Z,9.00
2019-05-03T09:16:05.537Z,9.00
2019-05-03T09:17:05.040Z,9.00
2019-05-03T09:18:05.182Z,9.00
2019-05-03T09:19:05.592Z,9.10
2019-05-03T09:20:12.506Z,9.10
2019-05-03T09:21:05.431Z,9.10
2019-05-03T09:22:06.104Z,9.20
2019-05-03T09:23:05.417Z,9.20
2019-05-03T09:24:05.578Z,9.30
2019-05-03T09:25:05.005Z,9.30
2019-05-03T09:26:07.737Z,9.40
2019-05-03T09:27:05.166Z,9.40
2019-05-03T09:28:08.134Z,9.40
2019-05-03T09:29:10.686Z,9.50
2019-05-03T09:30:05.016Z,9.50
2019-05-03T09:31:05.202Z,9.60
2019-05-03T09:32:05.398Z,9.60
2019-05-03T09:33:08.772Z,9.60
2019-05-03T09:34:07.980Z,9.60
2019-05-03T09:35:05.490Z,9.60
2019-05-03T09:36:10.098Z,9.60
2019-05-03T09:37:05.158Z,9.60
2019-05-03T09:38:05.788Z,9.70
2019-05-03T09:39:05.127Z,9.70
2019-05-03T09:40:05.387Z,9.70
2019-05-03T09:41:05.545Z,9.70
2019-05-03T09:42:04.967Z,9.70
2019-05-03T09:43:05.092Z,9.70
2019-05-03T09:44:07.735Z,9.80
2019-05-03T09:45:04.973Z,9.80
2019-05-03T09:46:05.169Z,9.90
2019-05-03T09:47:05.710Z,9.90
2019-05-03T09:48:05.637Z,9.90
2019-05-03T09:49:12.731Z,10.00
2019-05-03T09:50:05.377Z,10.10
2019-05-03T09:51:08.013Z,10.20
2019-05-03T09:52:07.914Z,10.20
2019-05-03T09:53:05.412Z,10.30
2019-05-03T09:54:05.696Z,10.40
2019-05-03T09:55:05.273Z,10.40
2019-05-03T09:56:05.407Z,10.40
2019-05-03T09:57:10.112Z,10.50
2019-05-03T09:58:05.449Z,10.60
2019-05-03T09:59:05.371Z,10.60
2019-05-03T10:00:05.484Z,10.60
2019-05-03T10:01:08.297Z,10.70
2019-05-03T10:02:05.120Z,10.70
2019-05-03T10:03:05.657Z,10.80
2019-05-03T10:04:05.485Z,10.80
2019-05-03T10:05:08.223Z,10.90
2019-05-03T10:06:04.651Z,10.90
2019-05-03T10:07:04.807Z,11.00
2019-05-03T10:08:05.200Z,11.00
2019-05-03T10:09:05.464Z,11.10
2019-05-03T10:10:05.760Z,11.10
2019-05-03T10:11:05.453Z,11.20
2019-05-03T10:12:05.457Z,11.20
2019-05-03T10:13:12.924Z,11.20
2019-05-03T10:14:05.527Z,11.30
2019-05-03T10:15:06.467Z,11.30
2019-05-03T10:16:10.151Z,11.30
2019-05-03T10:17:05.492Z,11.30
2019-05-03T10:18:10.144Z,11.30
2019-05-03T10:19:07.611Z,11.30
2019-05-03T10:20:05.480Z,11.20
2019-05-03T10:21:05.744Z,11.30
2019-05-03T10:22:05.759Z,11.30
2019-05-03T10:23:10.201Z,11.20
2019-05-03T10:24:05.680Z,11.20
2019-05-03T10:25:05.062Z,11.20
2019-05-03T10:26:05.338Z,11.20
2019-05-03T10:27:05.652Z,11.20
2019-05-03T10:28:05.728Z,11.10
2019-05-03T10:29:05.603Z,11.10
2019-05-03T10:30:12.411Z,11.10
2019-05-03T10:31:08.062Z,11.10
2019-05-03T10:32:08.061Z,11.00
2019-05-03T10:33:05.946Z,11.00
2019-05-03T10:34:05.854Z,11.00
2019-05-03T10:35:05.656Z,11.00
2019-05-03T10:36:05.459Z,11.00
2019-05-03T10:37:05.245Z,11.00
2019-05-03T10:38:05.759Z,11.00
2019-05-03T10:39:05.083Z,11.00
2019-05-03T10:40:07.840Z,11.00
2019-05-03T10:41:05.858Z,11.00
2019-05-03T10:42:04.946Z,11.00
2019-05-03T10:43:05.153Z,11.00
2019-05-03T10:44:06.489Z,10.90
2019-05-03T10:45:05.510Z,11.00
2019-05-03T10:46:05.597Z,10.90
2019-05-03T10:47:05.443Z,11.00
2019-05-03T10:48:04.933Z,11.00
2019-05-03T10:49:05.857Z,11.00
2019-05-03T10:50:10.363Z,11.00
2019-05-03T10:51:05.292Z,11.00
2019-05-03T10:52:05.769Z,11.00
2019-05-03T10:53:05.251Z,11.00
2019-05-03T10:54:05.546Z,11.10
2019-05-03T10:55:05.341Z,11.10
2019-05-03T10:56:05.491Z,11.10
2019-05-03T10:57:05.635Z,11.10
2019-05-03T10:58:05.294Z,11.10
2019-05-03T10:59:06.143Z,11.10
2019-05-03T11:00:05.418Z,11.10
2019-05-03T11:01:07.998Z,11.10
2019-05-03T11:02:04.875Z,11.10
2019-05-03T11:03:05.353Z,11.10
2019-05-03T11:04:05.466Z,11.10
2019-05-03T11:05:05.681Z,11.00
2019-05-03T11:06:05.471Z,11.00
2019-05-03T11:07:05.551Z,11.00
2019-05-03T11:08:05.046Z,10.90
2019-05-03T11:09:05.801Z,10.90
2019-05-03T11:10:05.314Z,10.90
2019-05-03T11:11:05.883Z,10.90
2019-05-03T11:12:10.227Z,10.80
2019-05-03T11:13:05.836Z,10.80
2019-05-03T11:14:05.594Z,10.90
2019-05-03T11:15:06.065Z,10.80
2019-05-03T11:16:05.570Z,10.90
2019-05-03T11:17:05.628Z,10.90
2019-05-03T11:18:05.555Z,10.90
2019-05-03T11:19:05.386Z,10.90
2019-05-03T11:20:10.201Z,10.80
2019-05-03T11:21:05.242Z,10.80
2019-05-03T11:22:05.648Z,10.80
2019-05-03T11:23:05.845Z,10.90
2019-05-03T11:24:07.594Z,10.80
2019-05-03T11:25:08.129Z,10.80
2019-05-03T11:26:05.043Z,10.90
2019-05-03T11:27:07.702Z,10.80
2019-05-03T11:28:04.911Z,10.80
2019-05-03T11:29:10.192Z,10.90
2019-05-03T11:30:09.366Z,10.90
2019-05-03T11:31:05.044Z,10.90
2019-05-03T11:32:09.814Z,10.90
2019-05-03T11:33:05.603Z,10.90
2019-05-03T11:34:07.209Z,10.90
2019-05-03T11:35:05.149Z,11.00
2019-05-03T11:36:07.828Z,10.90
2019-05-03T11:37:05.022Z,10.90
2019-05-03T11:38:05.502Z,10.90
2019-05-03T11:39:04.971Z,10.90
2019-05-03T11:40:05.192Z,10.90
2019-05-03T11:41:05.402Z,10.90
2019-05-03T11:42:05.561Z,10.90
2019-05-03T11:43:05.619Z,10.90
2019-05-03T11:44:04.614Z,10.90
2019-05-03T11:45:04.727Z,11.00
2019-05-03T11:46:04.957Z,11.00
2019-05-03T11:47:05.768Z,11.00
2019-05-03T11:48:05.152Z,11.00
2019-05-03T11:49:05.664Z,11.10
2019-05-03T11:50:10.229Z,11.10
2019-05-03T11:51:15.177Z,11.10
2019-05-03T11:52:06.439Z,11.10
2019-05-03T11:53:05.216Z,11.10
2019-05-03T11:54:05.908Z,11.10
2019-05-03T11:55:11.139Z,11.00
2019-05-03T11:56:05.575Z,11.00
2019-05-03T11:57:07.309Z,11.00
2019-05-03T11:58:05.589Z,11.00
2019-05-03T11:59:05.268Z,11.00
2019-05-03T12:00:05.424Z,11.00
2019-05-03T12:01:12.607Z,11.00
2019-05-03T12:02:05.593Z,11.00
2019-05-03T12:03:04.998Z,11.10
2019-05-03T12:04:05.197Z,11.10
2019-05-03T12:05:05.384Z,11.10
2019-05-03T12:06:05.564Z,11.10
2019-05-03T12:07:05.900Z,11.10
2019-05-03T12:08:05.393Z,11.20
2019-05-03T12:09:05.647Z,11.20
2019-05-03T12:10:13.312Z,11.20
2019-05-03T12:11:05.719Z,11.30
2019-05-03T12:12:05.001Z,11.30
2019-05-03T12:13:05.247Z,11.30
2019-05-03T12:14:06.862Z,11.30
2019-05-03T12:15:07.694Z,11.40
2019-05-03T12:16:14.204Z,11.40
2019-05-03T12:17:17.749Z,11.50
2019-05-03T12:18:05.713Z,11.50
2019-05-03T12:19:16.047Z,11.50
2019-05-03T12:20:07.737Z,11.50
2019-05-03T12:21:08.199Z,11.50
2019-05-03T12:22:06.048Z,11.60
2019-05-03T12:23:10.991Z,11.70
2019-05-03T12:24:06.242Z,11.60
2019-05-03T12:25:10.002Z,11.70
2019-05-03T12:26:09.769Z,11.60
2019-05-03T12:27:08.251Z,11.70
2019-05-03T12:28:10.231Z,11.70
2019-05-03T12:29:05.125Z,11.60
2019-05-03T12:30:05.151Z,11.70
2019-05-03T12:31:05.362Z,11.60
2019-05-03T12:32:05.473Z,11.60
2019-05-03T12:33:06.216Z,11.60
2019-05-03T12:34:05.925Z,11.50
2019-05-03T12:35:06.069Z,11.50
2019-05-03T12:36:10.435Z,11.50
2019-05-03T12:37:05.380Z,11.40
2019-05-03T12:38:05.769Z,11.50
2019-05-03T12:39:05.629Z,11.40
2019-05-03T12:40:05.498Z,11.40
2019-05-03T12:41:05.512Z,11.40
2019-05-03T12:42:10.257Z,11.30
2019-05-03T12:43:06.136Z,11.30
2019-05-03T12:44:05.423Z,11.30
2019-05-03T12:45:05.510Z,11.20
2019-05-03T12:46:05.543Z,11.20
2019-05-03T12:47:05.932Z,11.30
2019-05-03T12:48:05.295Z,11.30
2019-05-03T12:49:05.419Z,11.30
2019-05-03T12:50:05.527Z,11.30
2019-05-03T12:51:06.188Z,11.40
2019-05-03T12:52:05.569Z,11.30
2019-05-03T12:53:05.042Z,11.40
2019-05-03T12:54:07.801Z,11.40
2019-05-03T12:55:04.844Z,11.40
2019-05-03T12:56:10.952Z,11.40
2019-05-03T12:57:05.243Z,11.50
2019-05-03T12:58:06.219Z,11.50
2019-05-03T12:59:05.947Z,11.50
2019-05-03T13:00:05.149Z,11.50
2019-05-03T13:01:05.265Z,11.50
2019-05-03T13:02:05.354Z,11.50
2019-05-03T13:03:05.407Z,11.50
2019-05-03T13:04:05.882Z,11.50